createdAt,value
2023-05-03T00:00:16.331Z,13.80
2023-05-03T00:02:45.537Z,13.80
2023-05-03T00:05:15.124Z,13.80
2023-05-03T00:07:45.861Z,13.70
2023-05-03T00:10:16.569Z,13.70
2023-05-03T00:12:45.881Z,13.70
2023-05-03T00:15:16.658Z,13.60
2023-05-03T00:17:46.003Z,13.50
2023-05-03T00:20:15.495Z,13.50
2023-05-03T00:22:44.959Z,13.50
2023-05-03T00:25:15.436Z,13.40
2023-05-03T00:27:44.691Z,13.40
2023-05-03T00:30:16.179Z,13.40
2023-05-03T00:32:45.375Z,13.30
2023-05-03T00:35:14.987Z,13.30
2023-05-03T00:37:43.961Z,13.30
2023-05-03T00:40:17.367Z,13.30
2023-05-03T00:42:47.185Z,13.30
2023-05-03T00:45:17.649Z,13.20
2023-05-03T00:47:47.261Z,13.20
2023-05-03T00:50:16.723Z,13.20
2023-05-03T00:52:47.074Z,13.10
2023-05-03T00:55:16.968Z,13.10
2023-05-03T00:57:46.310Z,13.10
2023-05-03T01:00:17.953Z,13.10
2023-05-03T01:02:47.276Z,13.10
2023-05-03T01:05:16.890Z,13.10
2023-05-03T01:07:56.227Z,13.00
2023-05-03T01:10:33.379Z,13.00
2023-05-03T01:13:12.506Z,13.00
2023-05-03T01:15:51.789Z,12.90
2023-05-03T01:18:24.530Z,13.00
2023-05-03T01:20:54.791Z,12.90
2023-05-03T01:23:31.828Z,12.90
2023-05-03T01:26:16.396Z,12.90
2023-05-03T01:28:45.532Z,12.80
2023-05-03T01:31:18.842Z,12.80
2023-05-03T01:34:00.965Z,12.70
2023-05-03T01:36:33.288Z,12.70
2023-05-03T01:39:07.633Z,12.70
2023-05-03T01:41:42.721Z,12.70
2023-05-03T01:44:13.273Z,12.60
2023-05-03T01:46:45.428Z,12.60
2023-05-03T01:49:14.917Z,12.60
2023-05-03T01:51:43.986Z,12.50
2023-05-03T01:54:13.530Z,12.50
2023-05-03T01:56:43.840Z,12.50
2023-05-03T01:59:12.908Z,12.40
2023-05-03T02:01:42.171Z,12.40
2023-05-03T02:04:11.985Z,12.40
2023-05-03T02:06:41.176Z,12.40
2023-05-03T02:09:10.556Z,12.40
2023-05-03T02:11:39.959Z,12.30
2023-05-03T02:14:10.489Z,12.30
2023-05-03T02:16:39.969Z,12.30
2023-05-03T02:19:09.040Z,12.30
2023-05-03T02:21:39.010Z,12.30
2023-05-03T02:24:08.383Z,12.30
2023-05-03T02:26:37.472Z,12.30
2023-05-03T02:29:07.417Z,12.20
2023-05-03T02:31:38.027Z,12.20
2023-05-03T02:34:07.678Z,12.20
2023-05-03T02:36:36.802Z,12.10
2023-05-03T02:39:06.293Z,12.10
2023-05-03T02:41:36.033Z,12.10
2023-05-03T02:44:06.136Z,12.00
2023-05-03T02:46:35.587Z,12.00
2023-05-03T02:49:05.996Z,12.00
2023-05-03T02:51:35.712Z,11.90
2023-05-03T02:54:04.912Z,11.90
2023-05-03T02:56:34.550Z,11.90
2023-05-03T02:59:03.969Z,11.80
2023-05-03T03:01:35.106Z,11.80
2023-05-03T03:04:07.181Z,11.70
2023-05-03T03:06:36.369Z,11.70
2023-05-03T03:09:05.947Z,11.70
2023-05-03T03:11:35.280Z,11.70
2023-05-03T03:14:04.473Z,11.60
2023-05-03T03:16:33.482Z,11.60
2023-05-03T03:19:02.686Z,11.60
2023-05-03T03:21:33.523Z,11.60
2023-05-03T03:24:03.647Z,11.50
2023-05-03T03:26:32.989Z,11.50
2023-05-03T03:29:02.739Z,11.50
2023-05-03T03:31:32.112Z,11.50
2023-05-03T03:34:01.181Z,11.40
2023-05-03T03:36:33.474Z,11.40
2023-05-03T03:39:04.063Z,11.40
2023-05-03T03:41:34.119Z,11.30
2023-05-03T03:44:04.292Z,11.30
2023-05-03T03:46:33.455Z,11.30
2023-05-03T03:49:03.429Z,11.20
2023-05-03T03:51:34.831Z,11.20
2023-05-03T03:54:04.286Z,11.20
2023-05-03T03:56:37.847Z,11.20
2023-05-03T03:59:08.140Z,11.20
2023-05-03T04:01:37.948Z,11.20
2023-05-03T04:04:08.245Z,11.20
2023-05-03T04:06:40.079Z,11.10
2023-05-03T04:09:18.083Z,11.10
2023-05-03T04:11:48.022Z,11.10
2023-05-03T04:14:17.265Z,11.10
2023-05-03T04:16:47.628Z,11.10
2023-05-03T04:19:19.271Z,11.10
2023-05-03T04:21:50.293Z,11.10
2023-05-03T04:24:22.030Z,11.10
2023-05-03T04:26:52.401Z,11.10
2023-05-03T04:29:28.972Z,11.10
2023-05-03T04:31:58.393Z,11.10
2023-05-03T04:34:27.780Z,11.10
2023-05-03T04:37:00.581Z,11.10
2023-05-03T04:39:30.292Z,11.10
2023-05-03T04:42:01.344Z,11.20
2023-05-03T04:44:30.516Z,11.20
2023-05-03T04:47:00.752Z,11.20
2023-05-03T04:49:33.025Z,11.20
2023-05-03T04:52:04.022Z,11.20
2023-05-03T04:54:34.472Z,11.20
2023-05-03T04:57:03.929Z,11.20
2023-05-03T04:59:33.482Z,11.30
2023-05-03T05:02:03.077Z,11.30
2023-05-03T05:04:32.271Z,11.30
2023-05-03T05:07:04.029Z,11.30
2023-05-03T05:09:35.488Z,11.40
2023-05-03T05:12:06.128Z,11.40
2023-05-03T05:14:40.555Z,11.40
2023-05-03T05:17:10.969Z,11.40
2023-05-03T05:19:40.592Z,11.40
2023-05-03T05:22:13.329Z,11.50
2023-05-03T05:24:49.364Z,11.50
2023-05-03T05:27:19.522Z,11.50
2023-05-03T05:29:49.630Z,11.60
2023-05-03T05:32:18.862Z,11.60
2023-05-03T05:34:52.933Z,11.70
2023-05-03T05:37:24.758Z,11.70
2023-05-03T05:39:55.296Z,11.80
2023-05-03T05:42:27.826Z,11.80
2023-05-03T05:44:57.726Z,11.90
2023-05-03T05:47:27.527Z,12.00
2023-05-03T05:49:59.553Z,12.10
2023-05-03T05:52:30.689Z,12.20
2023-05-03T05:55:00.254Z,12.30
2023-05-03T05:57:29.985Z,12.40
2023-05-03T05:59:59.631Z,12.40
2023-05-03T06:02:29.436Z,12.60
2023-05-03T06:04:58.817Z,12.60
2023-05-03T06:07:28.067Z,12.70
2023-05-03T06:09:58.904Z,12.80
2023-05-03T06:12:28.340Z,12.80
2023-05-03T06:15:02.712Z,12.90
2023-05-03T06:17:38.121Z,12.90
2023-05-03T06:20:11.918Z,13.00
2023-05-03T06:22:42.397Z,13.00
2023-05-03T06:25:16.993Z,13.10
2023-05-03T06:27:47.893Z,13.20
2023-05-03T06:30:17.166Z,13.30
2023-05-03T06:32:49.234Z,13.30
2023-05-03T06:35:19.637Z,13.40
2023-05-03T06:37:49.579Z,13.50
2023-05-03T06:40:20.445Z,13.50
2023-05-03T06:42:49.475Z,13.60
2023-05-03T06:45:24.202Z,13.60
2023-05-03T06:47:53.244Z,13.60
2023-05-03T06:50:24.390Z,13.60
2023-05-03T06:52:53.399Z,13.70
2023-05-03T06:55:23.844Z,13.80
2023-05-03T06:57:53.778Z,13.90
2023-05-03T07:00:23.628Z,14.00
2023-05-03T07:02:53.036Z,14.10
2023-05-03T07:05:22.623Z,14.10
2023-05-03T07:07:51.879Z,14.20
2023-05-03T07:10:21.395Z,14.30
2023-05-03T07:12:51.954Z,14.40
2023-05-03T07:15:21.310Z,14.40
2023-05-03T07:17:50.926Z,14.50
2023-05-03T07:20:20.674Z,14.60
2023-05-03T07:22:50.021Z,14.70
2023-05-03T07:25:19.312Z,14.80
2023-05-03T07:27:48.658Z,14.80
2023-05-03T07:30:19.915Z,14.90
2023-05-03T07:32:50.818Z,14.90
2023-05-03T07:35:20.434Z,15.00
2023-05-03T07:37:49.741Z,15.00
2023-05-03T07:40:19.255Z,15.10
2023-05-03T07:42:48.420Z,15.20
2023-05-03T07:45:20.916Z,15.20
2023-05-03T07:47:50.385Z,15.20
2023-05-03T07:50:19.778Z,15.30
2023-05-03T07:52:51.867Z,15.30
2023-05-03T07:55:21.482Z,15.30
2023-05-03T07:57:51.168Z,15.30
2023-05-03T08:00:22.481Z,15.30
2023-05-03T08:02:52.055Z,15.40
2023-05-03T08:05:21.778Z,15.40
2023-05-03T08:07:51.397Z,15.40
2023-05-03T08:10:21.479Z,15.40
2023-05-03T08:12:51.214Z,15.50
2023-05-03T08:15:22.210Z,15.50
2023-05-03T08:17:51.719Z,15.50
2023-05-03T08:20:21.735Z,15.50
2023-05-03T08:22:51.404Z,15.50
2023-05-03T08:25:22.862Z,15.50
2023-05-03T08:27:52.389Z,15.60
2023-05-03T08:30:23.140Z,15.60
2023-05-03T08:32:53.110Z,15.70
2023-05-03T08:35:22.837Z,15.70
2023-05-03T08:37:52.057Z,15.70
2023-05-03T08:40:24.030Z,15.80
2023-05-03T08:42:56.303Z,15.90
2023-05-03T08:45:27.312Z,15.90
2023-05-03T08:47:56.855Z,16.00
2023-05-03T08:50:26.929Z,16.10
2023-05-03T08:52:56.092Z,16.20
2023-05-03T08:55:25.047Z,16.30
2023-05-03T08:57:54.560Z,16.50
2023-05-03T09:00:30.602Z,16.60
2023-05-03T09:03:00.021Z,16.70
2023-05-03T09:05:34.250Z,16.80
2023-05-03T09:08:04.849Z,16.90
2023-05-03T09:10:35.194Z,17.00
2023-05-03T09:13:04.767Z,17.00
2023-05-03T09:15:36.160Z,17.00
2023-05-03T09:18:11.020Z,17.10
2023-05-03T09:20:42.373Z,17.10
2023-05-03T09:23:13.253Z,17.20
2023-05-03T09:25:51.261Z,17.20
2023-05-03T09:28:22.358Z,17.30
2023-05-03T09:31:06.072Z,17.40
2023-05-03T09:33:35.284Z,17.50
2023-05-03T09:36:06.574Z,17.50
2023-05-03T09:39:30.111Z,17.50
2023-05-03T09:42:00.225Z,17.60
2023-05-03T09:44:43.834Z,17.60
2023-05-03T09:47:14.416Z,17.60
2023-05-03T09:49:44.593Z,17.60
2023-05-03T09:52:14.008Z,17.60
2023-05-03T09:54:43.793Z,17.60
2023-05-03T09:57:14.974Z,17.60
2023-05-03T09:59:46.985Z,17.60
2023-05-03T10:02:18.922Z,17.60
2023-05-03T10:04:52.644Z,17.70
2023-05-03T10:07:26.992Z,17.70
2023-05-03T10:09:57.116Z,17.70
2023-05-03T10:12:28.245Z,17.80
2023-05-03T10:15:00.352Z,17.90
2023-05-03T10:17:47.197Z,17.90
2023-05-03T10:20:26.932Z,18.00
2023-05-03T10:23:08.988Z,18.10
2023-05-03T10:25:40.031Z,18.20
2023-05-03T10:28:10.803Z,18.30
2023-05-03T10:30:41.342Z,18.30
2023-05-03T10:33:35.021Z,18.40
2023-05-03T10:36:10.452Z,18.40
2023-05-03T10:38:40.068Z,18.40
2023-05-03T10:41:09.059Z,18.40
2023-05-03T10:43:46.135Z,18.50
2023-05-03T10:46:36.557Z,18.50
2023-05-03T10:49:22.149Z,18.50
2023-05-03T10:51:51.975Z,18.50
2023-05-03T10:54:21.508Z,18.60
2023-05-03T10:56:53.017Z,18.60
2023-05-03T10:59:23.425Z,18.60
2023-05-03T11:01:54.112Z,18.60
2023-05-03T11:04:44.760Z,18.60
2023-05-03T11:07:21.568Z,18.60
2023-05-03T11:09:50.625Z,18.60
2023-05-03T11:12:19.626Z,18.60
2023-05-03T11:14:48.725Z,18.60
2023-05-03T11:17:18.058Z,18.60
2023-05-03T11:19:49.107Z,18.60
2023-05-03T11:22:18.251Z,18.70
2023-05-03T11:24:47.415Z,18.80
2023-05-03T11:27:24.424Z,18.90
2023-05-03T11:29:58.438Z,19.00
2023-05-03T11:32:29.921Z,19.00
2023-05-03T11:35:02.810Z,19.10
2023-05-03T11:37:32.688Z,19.20
2023-05-03T11:40:02.354Z,19.30
2023-05-03T11:42:31.784Z,19.30
2023-05-03T11:45:04.246Z,19.40
2023-05-03T11:47:34.064Z,19.50
2023-05-03T11:50:05.066Z,19.50
2023-05-03T11:52:39.576Z,19.60
2023-05-03T11:55:09.256Z,19.70
2023-05-03T11:57:46.254Z,19.80
2023-05-03T12:00:18.110Z,19.80
2023-05-03T12:02:50.357Z,19.80
2023-05-03T12:05:23.575Z,19.90
2023-05-03T12:07:53.687Z,20.00
2023-05-03T12:10:26.833Z,20.00
2023-05-03T12:13:00.061Z,20.00
2023-05-03T12:15:33.378Z,20.10
2023-05-03T12:18:09.560Z,20.10
2023-05-03T12:23:15.616Z,20.20
2023-05-03T12:25:45.438Z,20.30
2023-05-03T12:28:20.459Z,20.40
2023-05-03T12:30:53.261Z,20.50
2023-05-03T12:33:23.387Z,20.50
2023-05-03T12:35:54.857Z,20.60
2023-05-03T12:38:25.270Z,20.60
2023-05-03T12:40:55.427Z,20.60
2023-05-03T12:43:25.021Z,20.60
2023-05-03T12:46:15.096Z,20.70
2023-05-03T12:48:46.494Z,20.70
2023-05-03T12:51:19.905Z,20.80
2023-05-03T12:53:55.307Z,20.90
2023-05-03T12:56:25.575Z,21.00
2023-05-03T13:06:42.254Z,21.20
2023-05-03T13:09:19.207Z,21.30
2023-05-03T13:11:52.274Z,21.40
2023-05-03T13:14:22.117Z,21.50
2023-05-03T13:16:52.003Z,21.50
2023-05-03T13:19:21.299Z,21.60
2023-05-03T13:21:51.874Z,21.70
2023-05-03T13:24:20.972Z,21.70
2023-05-03T13:26:50.239Z,21.70
2023-05-03T13:29:19.240Z,21.70
2023-05-03T13:31:48.444Z,21.70
2023-05-03T13:34:17.556Z,21.60
2023-05-03T13:36:46.428Z,21.70
2023-05-03T13:39:19.647Z,21.70
2023-05-03T13:41:49.268Z,21.70
2023-05-03T13:44:19.293Z,21.70
2023-05-03T13:46:48.304Z,21.80
2023-05-03T13:49:17.589Z,21.80
2023-05-03T13:51:46.733Z,21.80
2023-05-03T13:54:17.281Z,21.80
2023-05-03T13:56:46.422Z,21.80
2023-05-03T13:59:17.419Z,21.70
2023-05-03T14:01:48.202Z,21.70
2023-05-03T14:04:17.489Z,21.60
2023-05-03T14:06:46.798Z,21.50
2023-05-03T14:09:17.613Z,21.50
2023-05-03T14:11:46.777Z,21.50
2023-05-03T14:14:15.918Z,21.50
2023-05-03T14:16:46.925Z,21.50
2023-05-03T14:19:18.020Z,21.60
2023-05-03T14:21:49.520Z,21.60
2023-05-03T14:24:20.352Z,21.70
2023-05-03T14:26:49.924Z,21.70
2023-05-03T14:29:19.325Z,21.70
2023-05-03T14:31:48.644Z,21.80
2023-05-03T14:34:18.047Z,21.80
2023-05-03T14:36:47.148Z,21.90
2023-05-03T14:39:16.663Z,21.90
2023-05-03T14:41:48.149Z,22.00
2023-05-03T14:44:17.547Z,22.00
2023-05-03T14:46:46.956Z,22.00
2023-05-03T14:49:17.541Z,22.00
2023-05-03T14:51:47.047Z,21.90
2023-05-03T14:54:16.306Z,21.90
2023-05-03T14:56:46.814Z,21.80
2023-05-03T14:59:16.044Z,21.70
2023-05-03T15:01:45.371Z,21.70
2023-05-03T15:04:14.877Z,21.60
2023-05-03T15:06:44.157Z,21.60
2023-05-03T15:09:13.499Z,21.50
2023-05-03T15:11:42.829Z,21.50
2023-05-03T15:14:13.844Z,21.50
2023-05-03T15:16:43.206Z,21.50
2023-05-03T15:19:12.614Z,21.50
2023-05-03T15:21:49.394Z,21.40
2023-05-03T15:24:19.435Z,21.40
2023-05-03T15:26:49.175Z,21.40
2023-05-03T15:29:20.469Z,21.30
2023-05-03T15:31:49.643Z,21.30
2023-05-03T15:34:19.302Z,21.30
2023-05-03T15:36:48.578Z,21.20
2023-05-03T15:39:18.016Z,21.20
2023-05-03T15:41:47.244Z,21.20
2023-05-03T15:44:16.495Z,21.10
2023-05-03T15:46:47.321Z,21.10
2023-05-03T15:49:16.682Z,21.10
2023-05-03T15:51:45.760Z,21.10
2023-05-03T15:54:14.893Z,21.10
2023-05-03T15:56:44.284Z,21.10
2023-05-03T15:59:14.944Z,21.10
2023-05-03T16:01:44.298Z,21.00
2023-05-03T16:04:15.727Z,21.00
2023-05-03T16:06:45.013Z,21.00
2023-05-03T16:09:15.878Z,20.90
2023-05-03T16:11:45.043Z,20.90
2023-05-03T16:14:14.349Z,20.80
2023-05-03T16:16:47.102Z,20.80
2023-05-03T16:19:19.008Z,20.80
2023-05-03T16:21:48.181Z,20.80
2023-05-03T16:24:17.264Z,20.70
2023-05-03T16:26:46.536Z,20.70
2023-05-03T16:29:18.094Z,20.70
2023-05-03T16:31:47.463Z,20.70
2023-05-03T16:34:18.470Z,20.70
2023-05-03T16:36:47.676Z,20.70
2023-05-03T16:39:16.666Z,20.60
2023-05-03T16:41:45.987Z,20.60
2023-05-03T16:44:18.577Z,20.50
2023-05-03T16:46:48.747Z,20.60
2023-05-03T16:49:19.446Z,20.50
2023-05-03T16:51:48.780Z,20.50
2023-05-03T16:54:17.964Z,20.50
2023-05-03T16:56:47.255Z,20.50
2023-05-03T16:59:16.843Z,20.50
2023-05-03T17:01:46.209Z,20.50
2023-05-03T17:04:16.298Z,20.40
2023-05-03T17:06:47.236Z,20.40
2023-05-03T17:09:18.162Z,20.40
2023-05-03T17:11:47.389Z,20.40
2023-05-03T17:14:16.486Z,20.40
2023-05-03T17:16:46.893Z,20.30
2023-05-03T17:19:16.127Z,20.30
2023-05-03T17:21:47.073Z,20.20
2023-05-03T17:24:16.464Z,20.10
2023-05-03T17:26:45.565Z,20.10
2023-05-03T17:29:15.062Z,20.00
2023-05-03T17:31:44.116Z,20.00
2023-05-03T17:34:13.808Z,19.90
2023-05-03T17:36:42.940Z,19.90
2023-05-03T17:39:13.749Z,19.90
2023-05-03T17:41:42.881Z,19.80
2023-05-03T17:44:12.656Z,19.70
2023-05-03T17:46:42.016Z,19.70
2023-05-03T17:49:11.855Z,19.60
2023-05-03T17:51:41.195Z,19.60
2023-05-03T17:54:10.869Z,19.50
2023-05-03T17:56:41.696Z,19.40
2023-05-03T17:59:11.037Z,19.30
2023-05-03T18:01:40.346Z,19.30
2023-05-03T18:04:10.033Z,19.20
2023-05-03T18:06:39.052Z,19.20
2023-05-03T18:09:08.351Z,19.10
2023-05-03T18:11:37.514Z,19.00
2023-05-03T18:14:07.984Z,19.00
2023-05-03T18:16:37.317Z,18.90
2023-05-03T18:19:06.599Z,18.90
2023-05-03T18:21:36.182Z,18.90
2023-05-03T18:24:06.747Z,18.80
2023-05-03T18:26:36.016Z,18.70
2023-05-03T18:29:05.301Z,18.70
2023-05-03T18:31:36.589Z,18.60
2023-05-03T18:34:06.413Z,18.50
2023-05-03T18:36:38.153Z,18.50
2023-05-03T18:39:08.742Z,18.40
2023-05-03T18:41:39.127Z,18.40
2023-05-03T18:44:08.260Z,18.30
2023-05-03T18:46:38.554Z,18.20
2023-05-03T18:49:09.821Z,18.20
2023-05-03T18:51:39.011Z,18.20
2023-05-03T18:54:08.232Z,18.10
2023-05-03T18:56:37.652Z,18.00
2023-05-03T18:59:07.051Z,18.00
2023-05-03T19:01:38.456Z,17.90
2023-05-03T19:04:07.939Z,17.90
2023-05-03T19:06:37.202Z,17.80
2023-05-03T19:09:11.843Z,17.80
2023-05-03T19:11:42.773Z,17.70
2023-05-03T19:14:12.372Z,17.70
2023-05-03T19:16:43.099Z,17.60
2023-05-03T19:19:13.621Z,17.60
2023-05-03T19:21:43.847Z,17.50
2023-05-03T19:24:15.075Z,17.50
2023-05-03T19:26:44.578Z,17.40
2023-05-03T19:29:13.799Z,17.40
2023-05-03T19:31:44.853Z,17.30
2023-05-03T19:34:13.922Z,17.30
2023-05-03T19:36:43.165Z,17.20
2023-05-03T19:39:13.520Z,17.20
2023-05-03T19:41:42.968Z,17.20
2023-05-03T19:44:12.363Z,17.10
2023-05-03T19:46:41.625Z,17.10
2023-05-03T19:49:12.862Z,17.00
2023-05-03T19:51:42.113Z,17.00
2023-05-03T19:54:11.496Z,17.00
2023-05-03T19:56:40.690Z,16.90
2023-05-03T19:59:10.556Z,16.90
2023-05-03T20:01:39.649Z,16.90
2023-05-03T20:04:09.419Z,16.80
2023-05-03T20:06:40.524Z,16.80
2023-05-03T20:09:09.571Z,16.80
2023-05-03T20:11:38.732Z,16.70
2023-05-03T20:14:08.535Z,16.70
2023-05-03T20:16:57.232Z,16.60
2023-05-03T20:20:07.012Z,16.60
2023-05-03T20:22:57.191Z,16.50
2023-05-03T20:25:26.708Z,16.50
2023-05-03T20:27:56.159Z,16.40
2023-05-03T20:30:25.932Z,16.40
2023-05-03T20:32:55.273Z,16.40
2023-05-03T20:35:24.404Z,16.30
2023-05-03T20:37:53.618Z,16.30
2023-05-03T20:40:24.496Z,16.30
2023-05-03T20:42:53.937Z,16.20
2023-05-03T20:45:23.131Z,16.20
2023-05-03T20:47:52.415Z,16.10
2023-05-03T20:50:21.880Z,16.10
2023-05-03T20:52:51.114Z,16.00
2023-05-03T20:55:20.486Z,15.90
2023-05-03T20:57:51.063Z,15.90
2023-05-03T21:00:22.167Z,15.90
2023-05-03T21:02:53.707Z,15.80
2023-05-03T21:05:23.135Z,15.80
2023-05-03T21:07:53.003Z,15.70
2023-05-03T21:10:22.127Z,15.70
2023-05-03T21:12:52.706Z,15.70
2023-05-03T21:15:22.153Z,15.60
2023-05-03T21:17:51.393Z,15.50
2023-05-03T21:20:20.827Z,15.50
2023-05-03T21:22:49.966Z,15.40
2023-05-03T21:25:19.684Z,15.40
2023-05-03T21:27:48.779Z,15.40
2023-05-03T21:30:20.523Z,15.30
2023-05-03T21:32:50.276Z,15.30
2023-05-03T21:35:20.254Z,15.20
2023-05-03T21:37:49.973Z,15.20
2023-05-03T21:40:21.597Z,15.20
2023-05-03T21:42:52.170Z,15.10
2023-05-03T21:45:23.218Z,15.10
2023-05-03T21:47:52.649Z,15.00
2023-05-03T21:50:23.493Z,15.00
2023-05-03T21:52:52.868Z,14.90
2023-05-03T21:55:22.210Z,14.90
2023-05-03T21:57:51.707Z,14.90
2023-05-03T22:00:22.443Z,14.90
2023-05-03T22:02:51.770Z,14.80
2023-05-03T22:05:20.847Z,14.70
2023-05-03T22:07:50.606Z,14.70
2023-05-03T22:10:19.982Z,14.70
2023-05-03T22:12:48.919Z,14.60
2023-05-03T22:15:18.156Z,14.50
2023-05-03T22:17:48.809Z,14.50
2023-05-03T22:20:17.987Z,14.50
2023-05-03T22:22:47.190Z,14.40
2023-05-03T22:25:23.842Z,14.40
2023-05-03T22:27:53.579Z,14.40
2023-05-03T22:30:23.683Z,14.30
2023-05-03T22:32:54.202Z,14.30
2023-05-03T22:35:23.586Z,14.20
2023-05-03T22:37:52.810Z,14.20
2023-05-03T22:40:22.084Z,14.10
2023-05-03T22:42:51.104Z,14.10
2023-05-03T22:45:20.579Z,14.10
2023-05-03T22:47:50.053Z,14.00
2023-05-03T22:50:21.303Z,14.00
2023-05-03T22:52:50.481Z,13.90
2023-05-03T22:55:19.826Z,13.90
2023-05-03T22:57:48.859Z,13.90
2023-05-03T23:00:18.073Z,13.80
2023-05-03T23:02:47.308Z,13.80
2023-05-03T23:05:16.776Z,13.80
2023-05-03T23:07:47.411Z,13.70
2023-05-03T23:10:16.822Z,13.70
2023-05-03T23:12:45.926Z,13.60
2023-05-03T23:15:15.483Z,13.60
2023-05-03T23:17:44.657Z,13.50
2023-05-03T23:20:14.355Z,13.50
2023-05-03T23:22:43.765Z,13.50
2023-05-03T23:25:16.107Z,13.40
2023-05-03T23:27:45.260Z,13.30
2023-05-03T23:30:15.447Z,13.30
2023-05-03T23:32:46.524Z,13.30
2023-05-03T23:35:16.321Z,13.20
2023-05-03T23:37:45.134Z,13.20
2023-05-03T23:40:16.158Z,13.10
2023-05-03T23:42:46.359Z,13.10
2023-05-03T23:45:15.395Z,13.00
2023-05-03T23:47:45.546Z,13.00
2023-05-03T23:50:14.780Z,12.90
2023-05-03T23:52:44.115Z,12.90
2023-05-03T23:55:15.054Z,12.80
2023-05-03T23:57:44.381Z,12.80
